createdAt,value
2018-03-24T00:02:19.292Z,8.80
2018-03-24T00:04:25.598Z,9.10
2018-03-24T00:06:29.797Z,9.77
2018-03-24T00:08:33.541Z,8.50
2018-03-24T00:10:34.663Z,9.20
2018-03-24T00:12:40.321Z,9.18
2018-03-24T00:14:41.585Z,8.85
2018-03-24T00:16:43.252Z,10.27
2018-03-24T00:18:46.563Z,9.10
2018-03-24T00:20:49.077Z,9.15
2018-03-24T00:25:15.932Z,8.65
2018-03-24T00:27:30.609Z,9.20
2018-03-24T00:29:42.493Z,8.57
2018-03-24T00:31:48.713Z,8.32
2018-03-24T00:33:59.180Z,8.88
2018-03-24T00:38:29.404Z,9.60
2018-03-24T00:40:32.353Z,8.80
2018-03-24T00:42:37.750Z,8.82
2018-03-24T00:47:10.688Z,8.95
2018-03-24T00:49:23.170Z,9.30
2018-03-24T00:54:02.242Z,8.90
2018-03-24T00:56:07.393Z,9.10
2018-03-24T01:03:30.769Z,9.93
2018-03-24T01:05:37.776Z,8.70
2018-03-24T01:24:56.309Z,8.50
2018-03-24T01:26:57.438Z,8.93
2018-03-24T01:38:58.241Z,9.35
2018-03-24T01:40:59.344Z,8.90
2018-03-24T01:43:02.343Z,9.05
2018-03-24T01:45:04.990Z,9.95
2018-03-24T01:47:07.331Z,10.25
2018-03-24T01:49:08.431Z,9.95
2018-03-24T01:51:09.611Z,9.85
2018-03-24T01:53:12.493Z,9.10
2018-03-24T01:55:14.021Z,9.52
2018-03-24T01:57:15.493Z,9.15
2018-03-24T03:01:58.786Z,9.50
2018-03-24T03:04:03.078Z,10.13
2018-03-24T03:06:07.132Z,9.50
2018-03-24T03:08:08.979Z,9.30
2018-03-24T03:10:13.886Z,11.02
2018-03-24T03:12:15.106Z,9.00
2018-03-24T03:14:16.238Z,9.82
2018-03-24T03:16:19.130Z,8.93
2018-03-24T03:18:22.693Z,10.73
2018-03-24T03:20:32.401Z,9.43
2018-03-24T03:22:36.030Z,9.98
2018-03-24T03:24:38.390Z,9.85
2018-03-24T03:26:40.082Z,10.10
2018-03-24T03:28:48.718Z,10.27
2018-03-24T03:30:58.631Z,9.82
2018-03-24T03:33:02.346Z,10.10
2018-03-24T03:35:04.964Z,10.45
2018-03-24T03:37:15.261Z,10.27
2018-03-24T03:41:30.317Z,9.48
2018-03-24T03:43:37.876Z,10.02
2018-03-24T03:45:42.632Z,10.52
2018-03-24T03:47:45.717Z,10.43
2018-03-24T03:49:49.855Z,9.48
2018-03-24T03:51:53.149Z,10.20
2018-03-24T03:54:08.738Z,10.20
2018-03-24T03:58:38.899Z,9.73
2018-03-24T04:00:40.118Z,10.23
2018-03-24T04:02:43.745Z,10.10
2018-03-24T04:04:48.950Z,9.57
2018-03-24T04:06:52.164Z,9.98
2018-03-24T04:11:19.597Z,10.45
2018-03-24T04:13:21.106Z,10.38
2018-03-24T04:15:26.374Z,10.82
2018-03-24T04:17:30.681Z,10.80
2018-03-24T04:19:39.249Z,10.30
2018-03-24T08:43:49.642Z,15.60
2018-03-24T08:45:51.290Z,17.58
2018-03-24T08:50:01.573Z,17.85
2018-03-24T08:52:02.852Z,17.73
2018-03-24T08:54:04.805Z,20.42
2018-03-24T08:56:05.982Z,17.23
2018-03-24T08:58:07.809Z,17.77
2018-03-24T09:02:18.626Z,18.52
2018-03-24T09:04:19.735Z,18.15
2018-03-24T09:06:21.566Z,18.02
2018-03-24T09:08:23.125Z,18.00
2018-03-24T09:10:24.638Z,17.98
2018-03-24T09:12:25.931Z,18.42
2018-03-24T09:14:27.324Z,17.10
2018-03-24T09:16:28.462Z,18.30
2018-03-24T09:18:29.653Z,18.00
2018-03-24T09:20:31.412Z,19.20
2018-03-24T09:22:33.826Z,18.10
2018-03-24T09:24:35.187Z,18.80
2018-03-24T09:26:36.309Z,19.30
2018-03-24T09:28:37.484Z,18.73
2018-03-24T09:30:39.046Z,17.23
2018-03-24T09:32:40.258Z,18.87
2018-03-24T09:34:41.415Z,19.37
2018-03-24T09:36:43.279Z,20.08
2018-03-24T09:38:44.467Z,20.45
2018-03-24T09:40:45.607Z,18.55
2018-03-24T09:42:46.744Z,19.10
2018-03-24T09:44:48.433Z,18.42
2018-03-24T09:46:51.195Z,19.52
2018-03-24T09:48:52.396Z,18.58
2018-03-24T09:50:53.718Z,18.42
2018-03-24T09:52:54.885Z,18.92
2018-03-24T09:54:56.314Z,19.10
2018-03-24T09:56:57.543Z,19.50
2018-03-24T09:59:00.166Z,18.83
2018-03-24T10:01:01.393Z,18.83
2018-03-24T10:03:05.384Z,18.70
2018-03-24T10:05:11.383Z,19.42
2018-03-24T10:07:13.762Z,19.52
2018-03-24T10:09:14.915Z,20.12
2018-03-24T10:11:16.268Z,19.25
2018-03-24T10:13:17.430Z,18.70
2018-03-24T10:15:18.543Z,20.25
2018-03-24T10:17:19.905Z,19.85
2018-03-24T10:19:21.054Z,19.12
2018-03-24T10:24:15.974Z,20.50
2018-03-24T10:26:17.078Z,19.48
2018-03-24T10:28:18.237Z,22.00
2018-03-24T10:30:19.404Z,20.60
2018-03-24T10:32:20.613Z,23.20
2018-03-24T10:34:21.833Z,19.23
2018-03-24T10:36:23.365Z,18.75
2018-03-24T10:40:32.309Z,18.75
2018-03-24T10:42:33.655Z,21.85
2018-03-24T10:44:34.814Z,21.23
2018-03-24T10:46:35.989Z,21.35
2018-03-24T10:48:37.514Z,22.52
2018-03-24T10:50:38.641Z,20.43
2018-03-24T10:52:39.957Z,21.65
2018-03-24T10:54:41.153Z,20.40
2018-03-24T10:56:42.301Z,23.15
2018-03-24T10:58:43.813Z,24.27
2018-03-24T11:03:25.713Z,29.70
2018-03-24T11:05:26.866Z,25.07
2018-03-24T11:07:27.966Z,24.87
2018-03-24T11:09:29.057Z,23.07
2018-03-24T11:11:30.335Z,22.67
2018-03-24T11:13:31.402Z,23.37
2018-03-24T11:15:32.469Z,23.30
2018-03-24T11:17:33.838Z,24.93
2018-03-24T11:19:35.269Z,26.10
2018-03-24T11:21:36.554Z,24.00
2018-03-24T11:23:37.709Z,24.87
2018-03-24T11:25:48.259Z,25.17
2018-03-24T11:27:49.421Z,25.70
2018-03-24T11:29:50.492Z,25.77
2018-03-24T11:31:51.985Z,24.07
2018-03-24T11:33:53.174Z,22.77
2018-03-24T11:35:54.672Z,28.00
2018-03-24T11:37:55.858Z,36.50
2018-03-24T11:39:57.094Z,26.23
2018-03-24T11:41:58.281Z,24.40
2018-03-24T11:43:59.472Z,23.80
2018-03-24T11:46:00.637Z,25.97
2018-03-24T11:48:01.765Z,22.67
2018-03-24T11:50:03.370Z,24.10
2018-03-24T11:52:04.448Z,24.90
2018-03-24T11:54:05.551Z,23.83
2018-03-24T11:56:06.714Z,27.90
2018-03-24T11:58:07.818Z,25.23
2018-03-24T12:00:09.956Z,26.47
2018-03-24T12:02:11.141Z,23.63
2018-03-24T12:04:12.286Z,25.23
2018-03-24T12:06:13.377Z,25.80
2018-03-24T12:08:14.650Z,24.97
2018-03-24T12:10:16.146Z,25.40
2018-03-24T12:14:25.618Z,23.00
2018-03-24T12:16:26.691Z,23.70
2018-03-24T12:18:27.794Z,25.87
2018-03-24T12:20:28.946Z,24.57
2018-03-24T12:22:31.120Z,25.80
2018-03-24T12:24:32.242Z,24.23
2018-03-24T12:26:33.329Z,23.30
2018-03-24T12:28:34.442Z,22.57
2018-03-24T12:30:36.678Z,23.27
2018-03-24T12:32:38.788Z,23.53
2018-03-24T12:34:41.109Z,21.50
2018-03-24T12:36:42.281Z,23.80
2018-03-24T12:38:43.636Z,23.50
2018-03-24T12:40:44.843Z,24.20
2018-03-24T12:42:46.330Z,23.20
2018-03-24T12:44:48.549Z,22.50
2018-03-24T12:46:50.412Z,22.60
2018-03-24T12:48:52.752Z,24.20
2018-03-24T12:50:54.276Z,23.37
2018-03-24T12:52:55.427Z,23.63
2018-03-24T12:54:56.775Z,23.73
2018-03-24T12:56:57.976Z,25.20
2018-03-24T12:58:59.790Z,23.10
2018-03-24T13:01:00.877Z,23.67
2018-03-24T13:03:02.354Z,24.13
2018-03-24T13:07:11.279Z,22.50
2018-03-24T13:09:12.448Z,24.47
2018-03-24T13:11:13.569Z,23.47
2018-03-24T13:13:14.697Z,24.40
2018-03-24T13:15:15.818Z,23.60
2018-03-24T13:17:17.337Z,23.30
2018-03-24T13:19:18.826Z,23.80
2018-03-24T13:21:20.310Z,21.70
2018-03-24T13:23:21.411Z,22.27
2018-03-24T13:25:22.542Z,22.37
2018-03-24T13:27:23.698Z,22.00
2018-03-24T13:29:24.842Z,24.57
2018-03-24T13:31:26.022Z,24.80
2018-03-24T13:33:27.248Z,23.40
2018-03-24T13:35:30.181Z,75.33
2018-03-24T13:37:33.399Z,28.23
2018-03-24T13:39:34.891Z,23.70
2018-03-24T13:41:36.367Z,22.83
2018-03-24T13:43:37.473Z,23.93
2018-03-24T13:45:38.936Z,22.90
2018-03-24T13:47:40.004Z,25.07
2018-03-24T13:49:41.158Z,22.53
2018-03-24T13:51:42.236Z,24.53
2018-03-24T13:53:44.274Z,24.20
2018-03-24T13:55:45.545Z,24.80
2018-03-24T13:57:46.671Z,27.13
2018-03-24T13:59:48.228Z,23.20
2018-03-24T14:01:49.351Z,22.13
2018-03-24T14:03:50.888Z,22.40
2018-03-24T14:05:52.033Z,21.90
2018-03-24T14:07:53.863Z,22.90
2018-03-24T14:09:55.381Z,20.13
2018-03-24T14:11:56.483Z,22.97
2018-03-24T14:13:57.944Z,22.07
2018-03-24T14:15:59.487Z,20.77
2018-03-24T14:18:00.943Z,20.57
2018-03-24T14:20:02.064Z,20.67
2018-03-24T14:22:03.616Z,19.70
2018-03-24T14:24:16.056Z,19.90
2018-03-24T14:26:29.054Z,18.17
2018-03-24T14:28:30.338Z,18.77
2018-03-24T14:30:31.442Z,20.13
2018-03-24T14:32:33.430Z,19.00
2018-03-24T14:34:34.610Z,17.50
2018-03-24T14:36:35.753Z,17.90
2018-03-24T14:38:47.434Z,18.77
2018-03-24T15:03:43.576Z,13.40
2018-03-24T15:05:45.871Z,15.40
2018-03-24T15:07:46.992Z,15.30
2018-03-24T15:09:48.478Z,14.10
2018-03-24T15:11:49.573Z,13.63
2018-03-24T15:13:51.190Z,15.10
2018-03-24T15:16:07.539Z,24.60
2018-03-24T15:18:08.936Z,14.90
2018-03-24T15:20:16.416Z,14.20
2018-03-24T15:22:17.599Z,14.83
2018-03-24T15:24:19.510Z,13.70
2018-03-24T15:26:21.188Z,15.53
2018-03-24T15:28:22.226Z,15.53
2018-03-24T15:30:35.547Z,15.63
2018-03-24T15:32:44.848Z,13.67
2018-03-24T15:34:58.229Z,14.47
2018-03-24T15:36:59.604Z,14.97
2018-03-24T15:39:00.715Z,15.10
2018-03-24T15:41:01.959Z,15.80
2018-03-24T15:43:05.845Z,15.70
2018-03-24T16:09:23.868Z,14.27
2018-03-24T16:11:28.213Z,16.37
2018-03-24T16:13:29.720Z,14.30
2018-03-24T16:15:34.888Z,12.90
2018-03-24T16:17:44.503Z,13.33
